sensor_id;sensor_type;location;lat;lon;timestamp;temperature;humidity
58447;DHT22;44240;51.840;7.258;2023-01-24T00:02:03;5.00;72.50
58447;DHT22;44240;51.840;7.258;2023-01-24T00:04:28;5.00;72.50
58447;DHT22;44240;51.840;7.258;2023-01-24T00:06:54;5.00;72.50
58447;DHT22;44240;51.840;7.258;2023-01-24T00:09:19;5.00;72.80
58447;DHT22;44240;51.840;7.258;2023-01-24T00:11:45;5.00;72.50
58447;DHT22;44240;51.840;7.258;2023-01-24T00:14:10;5.00;72.50
58447;DHT22;44240;51.840;7.258;2023-01-24T00:16:36;4.90;72.40
58447;DHT22;44240;51.840;7.258;2023-01-24T00:19:01;4.90;72.20
58447;DHT22;44240;51.840;7.258;2023-01-24T00:21:27;4.90;72.30
58447;DHT22;44240;51.840;7.258;2023-01-24T00:23:54;4.90;72.30
58447;DHT22;44240;51.840;7.258;2023-01-24T00:26:21;4.90;72.10
58447;DHT22;44240;51.840;7.258;2023-01-24T00:28:47;4.90;72.00
58447;DHT22;44240;51.840;7.258;2023-01-24T00:31:13;4.90;71.90
58447;DHT22;44240;51.840;7.258;2023-01-24T00:33:39;4.90;71.80
58447;DHT22;44240;51.840;7.258;2023-01-24T00:36:05;4.90;72.00
58447;DHT22;44240;51.840;7.258;2023-01-24T00:38:31;4.90;71.70
58447;DHT22;44240;51.840;7.258;2023-01-24T00:40:57;4.90;71.70
58447;DHT22;44240;51.840;7.258;2023-01-24T00:43:23;4.90;71.60
58447;DHT22;44240;51.840;7.258;2023-01-24T00:45:49;4.90;71.50
58447;DHT22;44240;51.840;7.258;2023-01-24T00:48:15;4.90;71.50
58447;DHT22;44240;51.840;7.258;2023-01-24T00:50:40;4.90;71.60
58447;DHT22;44240;51.840;7.258;2023-01-24T00:53:06;4.90;71.60
58447;DHT22;44240;51.840;7.258;2023-01-24T00:55:32;4.80;71.60
58447;DHT22;44240;51.840;7.258;2023-01-24T00:57:57;4.80;71.60
58447;DHT22;44240;51.840;7.258;2023-01-24T01:00:23;4.80;71.50
58447;DHT22;44240;51.840;7.258;2023-01-24T01:02:50;4.90;71.70
58447;DHT22;44240;51.840;7.258;2023-01-24T01:05:16;4.90;71.70
58447;DHT22;44240;51.840;7.258;2023-01-24T01:07:42;4.90;71.60
58447;DHT22;44240;51.840;7.258;2023-01-24T01:10:08;4.80;71.70
58447;DHT22;44240;51.840;7.258;2023-01-24T01:12:34;4.90;71.70
58447;DHT22;44240;51.840;7.258;2023-01-24T01:15:00;4.90;71.60
58447;DHT22;44240;51.840;7.258;2023-01-24T01:17:26;4.90;71.60
58447;DHT22;44240;51.840;7.258;2023-01-24T01:19:52;4.90;71.60
58447;DHT22;44240;51.840;7.258;2023-01-24T01:22:18;4.80;71.70
58447;DHT22;44240;51.840;7.258;2023-01-24T01:24:44;4.80;71.60
58447;DHT22;44240;51.840;7.258;2023-01-24T01:27:09;4.80;71.60
58447;DHT22;44240;51.840;7.258;2023-01-24T01:29:35;4.90;71.70
58447;DHT22;44240;51.840;7.258;2023-01-24T01:32:01;4.80;71.60
58447;DHT22;44240;51.840;7.258;2023-01-24T01:34:27;4.90;71.70
58447;DHT22;44240;51.840;7.258;2023-01-24T01:36:52;4.80;71.50
58447;DHT22;44240;51.840;7.258;2023-01-24T01:39:18;4.80;72.60
58447;DHT22;44240;51.840;7.258;2023-01-24T01:41:43;4.80;71.60
58447;DHT22;44240;51.840;7.258;2023-01-24T01:44:23;4.80;71.70
58447;DHT22;44240;51.840;7.258;2023-01-24T01:47:14;4.80;71.50
58447;DHT22;44240;51.840;7.258;2023-01-24T01:49:42;4.80;71.50
58447;DHT22;44240;51.840;7.258;2023-01-24T01:52:08;4.70;71.50
58447;DHT22;44240;51.840;7.258;2023-01-24T01:54:39;4.60;71.90
58447;DHT22;44240;51.840;7.258;2023-01-24T01:57:13;4.70;71.90
58447;DHT22;44240;51.840;7.258;2023-01-24T02:00:10;4.70;71.90
58447;DHT22;44240;51.840;7.258;2023-01-24T02:02:38;4.70;71.80
58447;DHT22;44240;51.840;7.258;2023-01-24T02:05:06;4.60;71.90
58447;DHT22;44240;51.840;7.258;2023-01-24T02:07:44;4.70;71.80
58447;DHT22;44240;51.840;7.258;2023-01-24T02:10:11;4.70;71.70
58447;DHT22;44240;51.840;7.258;2023-01-24T02:12:42;4.60;71.70
58447;DHT22;44240;51.840;7.258;2023-01-24T02:15:16;4.70;71.90
58447;DHT22;44240;51.840;7.258;2023-01-24T02:18:01;4.60;71.80
58447;DHT22;44240;51.840;7.258;2023-01-24T02:20:42;4.60;71.70
58447;DHT22;44240;51.840;7.258;2023-01-24T02:26:15;4.70;71.80
58447;DHT22;44240;51.840;7.258;2023-01-24T02:29:01;4.70;71.80
58447;DHT22;44240;51.840;7.258;2023-01-24T02:31:28;4.70;71.70
58447;DHT22;44240;51.840;7.258;2023-01-24T02:33:54;4.70;71.60
58447;DHT22;44240;51.840;7.258;2023-01-24T02:36:32;4.70;71.70
58447;DHT22;44240;51.840;7.258;2023-01-24T02:39:06;4.70;71.50
58447;DHT22;44240;51.840;7.258;2023-01-24T02:41:57;4.60;71.60
58447;DHT22;44240;51.840;7.258;2023-01-24T02:44:36;4.70;71.40
58447;DHT22;44240;51.840;7.258;2023-01-24T02:47:03;4.70;71.50
58447;DHT22;44240;51.840;7.258;2023-01-24T02:49:28;4.60;71.40
58447;DHT22;44240;51.840;7.258;2023-01-24T02:51:54;4.60;71.40
58447;DHT22;44240;51.840;7.258;2023-01-24T02:54:38;4.60;71.30
58447;DHT22;44240;51.840;7.258;2023-01-24T02:57:05;4.60;71.40
58447;DHT22;44240;51.840;7.258;2023-01-24T02:59:49;4.70;71.40
58447;DHT22;44240;51.840;7.258;2023-01-24T03:02:14;4.60;71.30
58447;DHT22;44240;51.840;7.258;2023-01-24T03:04:40;4.60;71.20
58447;DHT22;44240;51.840;7.258;2023-01-24T03:07:05;4.70;71.10
58447;DHT22;44240;51.840;7.258;2023-01-24T03:09:31;4.70;71.10
58447;DHT22;44240;51.840;7.258;2023-01-24T03:12:06;4.60;71.10
58447;DHT22;44240;51.840;7.258;2023-01-24T03:14:50;4.60;71.10
58447;DHT22;44240;51.840;7.258;2023-01-24T03:17:34;4.70;71.20
58447;DHT22;44240;51.840;7.258;2023-01-24T03:20:18;4.60;71.00
58447;DHT22;44240;51.840;7.258;2023-01-24T03:23:02;4.60;71.10
58447;DHT22;44240;51.840;7.258;2023-01-24T03:25:47;4.60;71.20
58447;DHT22;44240;51.840;7.258;2023-01-24T03:28:31;4.60;71.20
58447;DHT22;44240;51.840;7.258;2023-01-24T03:31:15;4.70;71.20
58447;DHT22;44240;51.840;7.258;2023-01-24T03:33:59;4.60;71.10
58447;DHT22;44240;51.840;7.258;2023-01-24T03:36:43;4.60;70.90
58447;DHT22;44240;51.840;7.258;2023-01-24T03:39:10;4.60;71.00
58447;DHT22;44240;51.840;7.258;2023-01-24T03:41:54;4.60;70.90
58447;DHT22;44240;51.840;7.258;2023-01-24T03:44:20;4.50;70.90
58447;DHT22;44240;51.840;7.258;2023-01-24T03:46:45;4.50;70.90
58447;DHT22;44240;51.840;7.258;2023-01-24T03:49:11;4.50;70.80
58447;DHT22;44240;51.840;7.258;2023-01-24T03:51:36;4.50;71.00
58447;DHT22;44240;51.840;7.258;2023-01-24T03:54:20;4.50;71.00
58447;DHT22;44240;51.840;7.258;2023-01-24T03:56:46;4.50;71.10
58447;DHT22;44240;51.840;7.258;2023-01-24T03:59:12;4.50;71.00
58447;DHT22;44240;51.840;7.258;2023-01-24T04:01:38;4.50;70.90
58447;DHT22;44240;51.840;7.258;2023-01-24T04:04:04;4.50;70.80
58447;DHT22;44240;51.840;7.258;2023-01-24T04:06:29;4.50;71.10
58447;DHT22;44240;51.840;7.258;2023-01-24T04:08:55;4.50;71.10
58447;DHT22;44240;51.840;7.258;2023-01-24T04:11:20;4.50;71.10
58447;DHT22;44240;51.840;7.258;2023-01-24T04:13:46;4.50;71.10
58447;DHT22;44240;51.840;7.258;2023-01-24T04:16:11;4.50;71.00
58447;DHT22;44240;51.840;7.258;2023-01-24T04:18:37;4.50;71.00
58447;DHT22;44240;51.840;7.258;2023-01-24T04:21:04;4.50;70.90
58447;DHT22;44240;51.840;7.258;2023-01-24T04:23:29;4.50;71.00
58447;DHT22;44240;51.840;7.258;2023-01-24T04:25:55;4.50;72.00
58447;DHT22;44240;51.840;7.258;2023-01-24T04:28:23;4.40;70.90
58447;DHT22;44240;51.840;7.258;2023-01-24T04:30:55;4.40;70.90
58447;DHT22;44240;51.840;7.258;2023-01-24T04:33:20;4.50;71.00
58447;DHT22;44240;51.840;7.258;2023-01-24T04:35:46;4.50;71.00
58447;DHT22;44240;51.840;7.258;2023-01-24T04:38:11;4.50;70.90
58447;DHT22;44240;51.840;7.258;2023-01-24T04:40:37;4.50;70.80
58447;DHT22;44240;51.840;7.258;2023-01-24T04:43:02;4.50;70.80
58447;DHT22;44240;51.840;7.258;2023-01-24T04:45:28;4.50;70.80
58447;DHT22;44240;51.840;7.258;2023-01-24T04:47:54;4.50;70.80
58447;DHT22;44240;51.840;7.258;2023-01-24T04:50:19;4.50;70.70
58447;DHT22;44240;51.840;7.258;2023-01-24T04:52:45;4.60;70.60
58447;DHT22;44240;51.840;7.258;2023-01-24T04:55:10;4.50;70.30
58447;DHT22;44240;51.840;7.258;2023-01-24T04:57:36;4.50;70.30
58447;DHT22;44240;51.840;7.258;2023-01-24T05:00:02;4.50;70.30
58447;DHT22;44240;51.840;7.258;2023-01-24T05:02:29;4.50;70.40
58447;DHT22;44240;51.840;7.258;2023-01-24T05:04:55;4.50;70.40
58447;DHT22;44240;51.840;7.258;2023-01-24T05:07:20;4.50;70.40
58447;DHT22;44240;51.840;7.258;2023-01-24T05:09:46;4.50;70.30
58447;DHT22;44240;51.840;7.258;2023-01-24T05:12:11;4.50;70.20
58447;DHT22;44240;51.840;7.258;2023-01-24T05:14:37;4.50;70.30
58447;DHT22;44240;51.840;7.258;2023-01-24T05:17:02;4.50;70.20
58447;DHT22;44240;51.840;7.258;2023-01-24T05:19:28;4.50;70.10
58447;DHT22;44240;51.840;7.258;2023-01-24T05:21:54;4.50;71.10
58447;DHT22;44240;51.840;7.258;2023-01-24T05:24:19;4.50;70.00
58447;DHT22;44240;51.840;7.258;2023-01-24T05:26:45;4.50;70.10
58447;DHT22;44240;51.840;7.258;2023-01-24T05:29:10;4.50;70.00
58447;DHT22;44240;51.840;7.258;2023-01-24T05:31:36;4.50;70.00
58447;DHT22;44240;51.840;7.258;2023-01-24T05:34:01;4.50;70.00
58447;DHT22;44240;51.840;7.258;2023-01-24T05:36:28;4.50;69.80
58447;DHT22;44240;51.840;7.258;2023-01-24T05:38:53;4.40;70.40
58447;DHT22;44240;51.840;7.258;2023-01-24T05:41:19;4.40;70.00
58447;DHT22;44240;51.840;7.258;2023-01-24T05:43:46;4.40;70.00
58447;DHT22;44240;51.840;7.258;2023-01-24T05:46:16;4.50;70.00
58447;DHT22;44240;51.840;7.258;2023-01-24T05:48:43;4.50;69.90
58447;DHT22;44240;51.840;7.258;2023-01-24T05:51:10;4.40;69.90
58447;DHT22;44240;51.840;7.258;2023-01-24T05:53:39;4.40;69.80
58447;DHT22;44240;51.840;7.258;2023-01-24T05:56:07;4.40;69.80
58447;DHT22;44240;51.840;7.258;2023-01-24T05:58:35;4.40;69.90
58447;DHT22;44240;51.840;7.258;2023-01-24T06:01:01;4.40;70.00
58447;DHT22;44240;51.840;7.258;2023-01-24T06:03:30;4.40;69.90
58447;DHT22;44240;51.840;7.258;2023-01-24T06:05:56;4.30;69.90
58447;DHT22;44240;51.840;7.258;2023-01-24T06:08:21;4.40;69.90
58447;DHT22;44240;51.840;7.258;2023-01-24T06:10:47;4.40;69.80
58447;DHT22;44240;51.840;7.258;2023-01-24T06:13:14;4.30;69.80
58447;DHT22;44240;51.840;7.258;2023-01-24T06:15:40;4.30;69.70
58447;DHT22;44240;51.840;7.258;2023-01-24T06:18:07;4.30;69.90
58447;DHT22;44240;51.840;7.258;2023-01-24T06:20:34;4.30;69.80
58447;DHT22;44240;51.840;7.258;2023-01-24T06:23:07;4.30;69.70
58447;DHT22;44240;51.840;7.258;2023-01-24T06:25:35;4.30;69.50
58447;DHT22;44240;51.840;7.258;2023-01-24T06:28:01;4.30;69.70
58447;DHT22;44240;51.840;7.258;2023-01-24T06:30:27;4.30;70.80
58447;DHT22;44240;51.840;7.258;2023-01-24T06:33:06;4.20;69.80
58447;DHT22;44240;51.840;7.258;2023-01-24T06:38:19;4.30;69.70
58447;DHT22;44240;51.840;7.258;2023-01-24T06:40:45;4.30;69.80
58447;DHT22;44240;51.840;7.258;2023-01-24T06:43:11;4.30;69.70
58447;DHT22;44240;51.840;7.258;2023-01-24T06:45:37;4.30;69.70
58447;DHT22;44240;51.840;7.258;2023-01-24T06:48:02;4.30;69.60
58447;DHT22;44240;51.840;7.258;2023-01-24T06:50:28;4.30;69.70
58447;DHT22;44240;51.840;7.258;2023-01-24T06:52:56;4.30;69.80
58447;DHT22;44240;51.840;7.258;2023-01-24T06:55:22;4.30;69.80
58447;DHT22;44240;51.840;7.258;2023-01-24T06:57:54;4.30;69.80
58447;DHT22;44240;51.840;7.258;2023-01-24T07:00:20;4.30;69.70
58447;DHT22;44240;51.840;7.258;2023-01-24T07:03:00;4.30;69.80
58447;DHT22;44240;51.840;7.258;2023-01-24T07:05:27;4.30;69.90
58447;DHT22;44240;51.840;7.258;2023-01-24T07:07:53;4.30;69.90
58447;DHT22;44240;51.840;7.258;2023-01-24T07:10:18;4.30;69.90
58447;DHT22;44240;51.840;7.258;2023-01-24T07:12:44;4.30;69.80
58447;DHT22;44240;51.840;7.258;2023-01-24T07:15:10;4.30;70.80
58447;DHT22;44240;51.840;7.258;2023-01-24T07:17:36;4.20;69.80
58447;DHT22;44240;51.840;7.258;2023-01-24T07:20:01;4.20;69.70
58447;DHT22;44240;51.840;7.258;2023-01-24T07:22:27;4.20;69.90
58447;DHT22;44240;51.840;7.258;2023-01-24T07:24:53;4.20;69.90
58447;DHT22;44240;51.840;7.258;2023-01-24T07:27:19;4.20;69.80
58447;DHT22;44240;51.840;7.258;2023-01-24T07:29:45;4.20;70.00
58447;DHT22;44240;51.840;7.258;2023-01-24T07:32:11;4.20;70.10
58447;DHT22;44240;51.840;7.258;2023-01-24T07:34:37;4.20;70.00
58447;DHT22;44240;51.840;7.258;2023-01-24T07:37:08;4.20;70.00
58447;DHT22;44240;51.840;7.258;2023-01-24T07:39:34;4.20;69.90
58447;DHT22;44240;51.840;7.258;2023-01-24T07:41:59;4.20;69.80
58447;DHT22;44240;51.840;7.258;2023-01-24T07:44:25;4.20;69.70
58447;DHT22;44240;51.840;7.258;2023-01-24T07:46:50;4.20;69.60
58447;DHT22;44240;51.840;7.258;2023-01-24T07:49:16;4.20;70.80
58447;DHT22;44240;51.840;7.258;2023-01-24T07:51:42;4.20;69.80
58447;DHT22;44240;51.840;7.258;2023-01-24T07:54:07;4.10;69.70
58447;DHT22;44240;51.840;7.258;2023-01-24T07:56:33;4.10;69.80
58447;DHT22;44240;51.840;7.258;2023-01-24T07:58:59;4.20;69.80
58447;DHT22;44240;51.840;7.258;2023-01-24T08:01:25;4.10;69.80
58447;DHT22;44240;51.840;7.258;2023-01-24T08:03:55;4.10;69.90
58447;DHT22;44240;51.840;7.258;2023-01-24T08:06:20;4.20;69.90
58447;DHT22;44240;51.840;7.258;2023-01-24T08:08:46;4.20;69.80
58447;DHT22;44240;51.840;7.258;2023-01-24T08:11:11;4.20;69.90
58447;DHT22;44240;51.840;7.258;2023-01-24T08:13:41;4.30;70.00
58447;DHT22;44240;51.840;7.258;2023-01-24T08:16:07;4.20;69.80
58447;DHT22;44240;51.840;7.258;2023-01-24T08:18:32;4.20;69.90
58447;DHT22;44240;51.840;7.258;2023-01-24T08:20:58;4.30;70.00
58447;DHT22;44240;51.840;7.258;2023-01-24T08:23:23;4.30;69.90
58447;DHT22;44240;51.840;7.258;2023-01-24T08:25:49;4.30;69.90
58447;DHT22;44240;51.840;7.258;2023-01-24T08:28:15;4.30;70.00
58447;DHT22;44240;51.840;7.258;2023-01-24T08:30:40;4.30;70.00
58447;DHT22;44240;51.840;7.258;2023-01-24T08:33:06;4.30;69.90
58447;DHT22;44240;51.840;7.258;2023-01-24T08:35:32;4.30;70.00
58447;DHT22;44240;51.840;7.258;2023-01-24T08:37:58;4.30;70.00
58447;DHT22;44240;51.840;7.258;2023-01-24T08:40:24;4.30;70.20
58447;DHT22;44240;51.840;7.258;2023-01-24T08:42:50;4.30;70.20
58447;DHT22;44240;51.840;7.258;2023-01-24T08:45:15;4.30;70.30
58447;DHT22;44240;51.840;7.258;2023-01-24T08:47:41;4.30;70.30
58447;DHT22;44240;51.840;7.258;2023-01-24T08:50:09;4.30;70.20
58447;DHT22;44240;51.840;7.258;2023-01-24T08:52:35;4.40;70.20
58447;DHT22;44240;51.840;7.258;2023-01-24T08:55:00;4.40;70.20
58447;DHT22;44240;51.840;7.258;2023-01-24T08:57:26;4.40;69.90
58447;DHT22;44240;51.840;7.258;2023-01-24T08:59:51;4.40;70.10
58447;DHT22;44240;51.840;7.258;2023-01-24T09:02:17;4.40;70.10
58447;DHT22;44240;51.840;7.258;2023-01-24T09:04:43;4.40;70.00
58447;DHT22;44240;51.840;7.258;2023-01-24T09:07:13;4.40;70.10
58447;DHT22;44240;51.840;7.258;2023-01-24T09:09:38;4.40;70.10
58447;DHT22;44240;51.840;7.258;2023-01-24T09:12:06;4.40;70.30
58447;DHT22;44240;51.840;7.258;2023-01-24T09:14:31;4.40;70.30
58447;DHT22;44240;51.840;7.258;2023-01-24T09:16:57;4.40;70.10
58447;DHT22;44240;51.840;7.258;2023-01-24T09:19:22;4.40;70.00
58447;DHT22;44240;51.840;7.258;2023-01-24T09:21:49;4.50;70.10
58447;DHT22;44240;51.840;7.258;2023-01-24T09:24:18;4.50;70.10
58447;DHT22;44240;51.840;7.258;2023-01-24T09:26:44;4.50;70.00
58447;DHT22;44240;51.840;7.258;2023-01-24T09:29:10;4.50;70.00
58447;DHT22;44240;51.840;7.258;2023-01-24T09:31:35;4.50;70.10
58447;DHT22;44240;51.840;7.258;2023-01-24T09:34:01;4.50;70.00
58447;DHT22;44240;51.840;7.258;2023-01-24T09:36:26;4.60;69.80
58447;DHT22;44240;51.840;7.258;2023-01-24T09:38:53;4.60;69.70
58447;DHT22;44240;51.840;7.258;2023-01-24T09:44:42;4.60;69.40
58447;DHT22;44240;51.840;7.258;2023-01-24T09:47:26;4.50;69.40
58447;DHT22;44240;51.840;7.258;2023-01-24T09:50:02;4.50;69.60
58447;DHT22;44240;51.840;7.258;2023-01-24T09:52:39;4.50;69.60
58447;DHT22;44240;51.840;7.258;2023-01-24T09:55:18;4.60;69.60
58447;DHT22;44240;51.840;7.258;2023-01-24T10:00:16;4.60;69.30
58447;DHT22;44240;51.840;7.258;2023-01-24T10:02:43;4.50;69.10
58447;DHT22;44240;51.840;7.258;2023-01-24T10:05:16;4.50;69.20
58447;DHT22;44240;51.840;7.258;2023-01-24T10:18:28;4.70;69.30
58447;DHT22;44240;51.840;7.258;2023-01-24T10:23:46;4.70;69.30
58447;DHT22;44240;51.840;7.258;2023-01-24T10:26:18;4.70;69.00
58447;DHT22;44240;51.840;7.258;2023-01-24T10:29:12;4.60;68.80
58447;DHT22;44240;51.840;7.258;2023-01-24T10:31:42;4.70;69.10
58447;DHT22;44240;51.840;7.258;2023-01-24T10:34:12;4.70;68.90
58447;DHT22;44240;51.840;7.258;2023-01-24T10:36:50;4.70;68.80
58447;DHT22;44240;51.840;7.258;2023-01-24T10:39:16;4.70;68.70
58447;DHT22;44240;51.840;7.258;2023-01-24T10:41:42;4.60;68.40
58447;DHT22;44240;51.840;7.258;2023-01-24T10:44:29;4.60;68.40
58447;DHT22;44240;51.840;7.258;2023-01-24T10:49:59;4.70;68.70
58447;DHT22;44240;51.840;7.258;2023-01-24T10:52:25;4.70;68.50
58447;DHT22;44240;51.840;7.258;2023-01-24T10:54:59;4.70;68.50
58447;DHT22;44240;51.840;7.258;2023-01-24T10:57:35;4.70;68.40
58447;DHT22;44240;51.840;7.258;2023-01-24T11:00:56;4.70;68.50
58447;DHT22;44240;51.840;7.258;2023-01-24T11:03:22;4.80;68.40
58447;DHT22;44240;51.840;7.258;2023-01-24T11:06:04;4.70;68.60
58447;DHT22;44240;51.840;7.258;2023-01-24T11:08:37;4.80;68.30
58447;DHT22;44240;51.840;7.258;2023-01-24T11:11:16;4.90;68.60
58447;DHT22;44240;51.840;7.258;2023-01-24T11:13:43;4.90;68.40
58447;DHT22;44240;51.840;7.258;2023-01-24T11:18:46;4.90;68.10
58447;DHT22;44240;51.840;7.258;2023-01-24T11:21:17;5.00;68.20
58447;DHT22;44240;51.840;7.258;2023-01-24T11:23:43;4.90;68.00
58447;DHT22;44240;51.840;7.258;2023-01-24T11:26:30;4.90;67.80
58447;DHT22;44240;51.840;7.258;2023-01-24T11:31:31;4.90;67.50
58447;DHT22;44240;51.840;7.258;2023-01-24T11:34:05;4.90;67.50
58447;DHT22;44240;51.840;7.258;2023-01-24T11:39:50;4.90;68.00
58447;DHT22;44240;51.840;7.258;2023-01-24T11:45:03;5.00;68.10
58447;DHT22;44240;51.840;7.258;2023-01-24T11:56:01;5.10;67.90
58447;DHT22;44240;51.840;7.258;2023-01-24T11:58:46;5.10;67.90
58447;DHT22;44240;51.840;7.258;2023-01-24T12:09:14;5.10;68.10
58447;DHT22;44240;51.840;7.258;2023-01-24T12:11:55;5.10;67.70
58447;DHT22;44240;51.840;7.258;2023-01-24T12:17:52;5.10;67.90
58447;DHT22;44240;51.840;7.258;2023-01-24T12:23:20;5.10;67.70
58447;DHT22;44240;51.840;7.258;2023-01-24T12:25:49;5.20;67.90
58447;DHT22;44240;51.840;7.258;2023-01-24T12:28:26;5.10;67.60
58447;DHT22;44240;51.840;7.258;2023-01-24T12:30:57;5.20;67.70
58447;DHT22;44240;51.840;7.258;2023-01-24T12:36:11;5.20;67.60
58447;DHT22;44240;51.840;7.258;2023-01-24T12:38:46;5.20;67.70
58447;DHT22;44240;51.840;7.258;2023-01-24T12:41:35;5.10;67.60
58447;DHT22;44240;51.840;7.258;2023-01-24T12:44:15;5.20;67.30
58447;DHT22;44240;51.840;7.258;2023-01-24T12:55:25;5.20;67.30
58447;DHT22;44240;51.840;7.258;2023-01-24T12:58:21;5.20;67.20
58447;DHT22;44240;51.840;7.258;2023-01-24T13:01:21;5.30;67.30
58447;DHT22;44240;51.840;7.258;2023-01-24T13:04:09;5.20;67.10
58447;DHT22;44240;51.840;7.258;2023-01-24T13:06:55;5.20;66.90
58447;DHT22;44240;51.840;7.258;2023-01-24T13:09:41;5.20;67.00
58447;DHT22;44240;51.840;7.258;2023-01-24T13:12:16;5.10;66.90
58447;DHT22;44240;51.840;7.258;2023-01-24T13:15:18;5.10;67.00
58447;DHT22;44240;51.840;7.258;2023-01-24T13:23:34;5.10;68.20
58447;DHT22;44240;51.840;7.258;2023-01-24T13:32:14;5.20;67.00
58447;DHT22;44240;51.840;7.258;2023-01-24T13:34:48;5.20;67.00
58447;DHT22;44240;51.840;7.258;2023-01-24T13:37:19;5.10;67.00
58447;DHT22;44240;51.840;7.258;2023-01-24T13:39:46;5.20;67.10
58447;DHT22;44240;51.840;7.258;2023-01-24T13:44:38;5.20;66.90
58447;DHT22;44240;51.840;7.258;2023-01-24T13:55:00;5.20;66.70
58447;DHT22;44240;51.840;7.258;2023-01-24T13:57:28;5.20;66.90
58447;DHT22;44240;51.840;7.258;2023-01-24T13:59:59;5.20;66.90
58447;DHT22;44240;51.840;7.258;2023-01-24T14:02:39;5.10;66.70
58447;DHT22;44240;51.840;7.258;2023-01-24T14:07:57;5.10;66.90
58447;DHT22;44240;51.840;7.258;2023-01-24T14:10:33;5.00;66.90
58447;DHT22;44240;51.840;7.258;2023-01-24T14:13:00;5.00;66.90
58447;DHT22;44240;51.840;7.258;2023-01-24T14:15:40;5.00;68.10
58447;DHT22;44240;51.840;7.258;2023-01-24T14:21:23;5.00;67.20
58447;DHT22;44240;51.840;7.258;2023-01-24T14:23:57;5.00;67.30
58447;DHT22;44240;51.840;7.258;2023-01-24T14:26:27;5.00;67.20
58447;DHT22;44240;51.840;7.258;2023-01-24T14:28:58;5.00;67.20
58447;DHT22;44240;51.840;7.258;2023-01-24T14:31:28;5.00;67.00
58447;DHT22;44240;51.840;7.258;2023-01-24T14:34:16;5.00;66.90
58447;DHT22;44240;51.840;7.258;2023-01-24T14:36:44;5.00;66.80
58447;DHT22;44240;51.840;7.258;2023-01-24T14:41:39;4.90;67.00
58447;DHT22;44240;51.840;7.258;2023-01-24T14:44:19;4.90;67.10
58447;DHT22;44240;51.840;7.258;2023-01-24T14:46:57;4.90;67.10
58447;DHT22;44240;51.840;7.258;2023-01-24T14:51:54;4.90;67.10
58447;DHT22;44240;51.840;7.258;2023-01-24T14:54:21;4.90;67.00
58447;DHT22;44240;51.840;7.258;2023-01-24T14:56:47;4.90;66.90
58447;DHT22;44240;51.840;7.258;2023-01-24T14:59:12;4.90;67.00
58447;DHT22;44240;51.840;7.258;2023-01-24T15:01:40;4.90;67.00
58447;DHT22;44240;51.840;7.258;2023-01-24T15:04:18;4.80;67.00
58447;DHT22;44240;51.840;7.258;2023-01-24T15:06:44;4.80;67.00
58447;DHT22;44240;51.840;7.258;2023-01-24T15:09:13;4.80;67.30
58447;DHT22;44240;51.840;7.258;2023-01-24T15:11:42;4.80;67.30
58447;DHT22;44240;51.840;7.258;2023-01-24T15:14:18;4.80;67.20
58447;DHT22;44240;51.840;7.258;2023-01-24T15:16:51;4.80;67.20
58447;DHT22;44240;51.840;7.258;2023-01-24T15:19:25;4.80;67.40
58447;DHT22;44240;51.840;7.258;2023-01-24T15:21:52;4.80;67.40
58447;DHT22;44240;51.840;7.258;2023-01-24T15:24:22;4.80;67.40
58447;DHT22;44240;51.840;7.258;2023-01-24T15:26:49;4.80;67.40
58447;DHT22;44240;51.840;7.258;2023-01-24T15:30:06;4.80;67.40
58447;DHT22;44240;51.840;7.258;2023-01-24T15:40:57;4.70;67.40
58447;DHT22;44240;51.840;7.258;2023-01-24T15:44:00;4.70;67.40
58447;DHT22;44240;51.840;7.258;2023-01-24T15:46:27;4.70;67.40
58447;DHT22;44240;51.840;7.258;2023-01-24T15:49:28;4.60;67.50
58447;DHT22;44240;51.840;7.258;2023-01-24T15:52:14;4.70;67.50
58447;DHT22;44240;51.840;7.258;2023-01-24T15:54:43;4.60;67.50
58447;DHT22;44240;51.840;7.258;2023-01-24T15:57:30;4.60;67.20
58447;DHT22;44240;51.840;7.258;2023-01-24T15:59:59;4.60;67.50
58447;DHT22;44240;51.840;7.258;2023-01-24T16:02:26;4.60;67.60
58447;DHT22;44240;51.840;7.258;2023-01-24T16:04:51;4.60;67.50
58447;DHT22;44240;51.840;7.258;2023-01-24T16:07:17;4.60;67.60
58447;DHT22;44240;51.840;7.258;2023-01-24T16:09:47;4.60;67.60
58447;DHT22;44240;51.840;7.258;2023-01-24T16:12:15;4.60;67.60
58447;DHT22;44240;51.840;7.258;2023-01-24T16:14:52;4.60;67.70
58447;DHT22;44240;51.840;7.258;2023-01-24T16:17:19;4.60;67.60
58447;DHT22;44240;51.840;7.258;2023-01-24T16:19:46;4.50;67.70
58447;DHT22;44240;51.840;7.258;2023-01-24T16:22:11;4.50;67.70
58447;DHT22;44240;51.840;7.258;2023-01-24T16:24:37;4.50;67.70
58447;DHT22;44240;51.840;7.258;2023-01-24T16:27:03;4.60;67.80
58447;DHT22;44240;51.840;7.258;2023-01-24T16:29:31;4.60;67.80
58447;DHT22;44240;51.840;7.258;2023-01-24T16:31:58;4.50;67.70
58447;DHT22;44240;51.840;7.258;2023-01-24T16:34:23;4.50;67.80
58447;DHT22;44240;51.840;7.258;2023-01-24T16:36:49;4.50;68.00
58447;DHT22;44240;51.840;7.258;2023-01-24T16:39:17;4.50;67.90
58447;DHT22;44240;51.840;7.258;2023-01-24T16:41:47;4.50;67.80
58447;DHT22;44240;51.840;7.258;2023-01-24T16:44:13;4.50;67.80
58447;DHT22;44240;51.840;7.258;2023-01-24T16:46:39;4.50;67.70
58447;DHT22;44240;51.840;7.258;2023-01-24T16:49:06;4.50;67.70
58447;DHT22;44240;51.840;7.258;2023-01-24T16:51:31;4.50;67.70
58447;DHT22;44240;51.840;7.258;2023-01-24T16:53:57;4.40;67.70
58447;DHT22;44240;51.840;7.258;2023-01-24T16:56:23;4.40;67.60
58447;DHT22;44240;51.840;7.258;2023-01-24T16:58:54;4.40;67.60
58447;DHT22;44240;51.840;7.258;2023-01-24T17:01:20;4.40;67.60
58447;DHT22;44240;51.840;7.258;2023-01-24T17:03:49;4.40;67.70
58447;DHT22;44240;51.840;7.258;2023-01-24T17:06:15;4.40;67.70
58447;DHT22;44240;51.840;7.258;2023-01-24T17:08:41;4.30;67.70
58447;DHT22;44240;51.840;7.258;2023-01-24T17:11:08;4.30;67.80
58447;DHT22;44240;51.840;7.258;2023-01-24T17:13:34;4.30;67.90
58447;DHT22;44240;51.840;7.258;2023-01-24T17:16:09;4.40;68.00
58447;DHT22;44240;51.840;7.258;2023-01-24T17:18:35;4.40;68.10
58447;DHT22;44240;51.840;7.258;2023-01-24T17:21:03;4.40;68.00
58447;DHT22;44240;51.840;7.258;2023-01-24T17:23:30;4.40;68.10
58447;DHT22;44240;51.840;7.258;2023-01-24T17:26:03;4.40;68.00
58447;DHT22;44240;51.840;7.258;2023-01-24T17:28:29;4.40;68.00
58447;DHT22;44240;51.840;7.258;2023-01-24T17:30:55;4.40;67.80
58447;DHT22;44240;51.840;7.258;2023-01-24T17:33:21;4.30;67.80
58447;DHT22;44240;51.840;7.258;2023-01-24T17:35:47;4.30;67.90
58447;DHT22;44240;51.840;7.258;2023-01-24T17:38:12;4.30;68.10
58447;DHT22;44240;51.840;7.258;2023-01-24T17:40:38;4.30;68.20
58447;DHT22;44240;51.840;7.258;2023-01-24T17:43:03;4.40;68.20
58447;DHT22;44240;51.840;7.258;2023-01-24T17:45:29;4.40;68.20
58447;DHT22;44240;51.840;7.258;2023-01-24T17:47:55;4.40;68.20
58447;DHT22;44240;51.840;7.258;2023-01-24T17:50:21;4.40;68.10
58447;DHT22;44240;51.840;7.258;2023-01-24T17:52:47;4.40;68.10
58447;DHT22;44240;51.840;7.258;2023-01-24T17:55:13;4.40;68.10
58447;DHT22;44240;51.840;7.258;2023-01-24T17:57:39;4.40;67.90